Time;durP1;ratioP1;P1;durP2;ratioP2;P2;SDS_P1;SDS_P2;PMS_P1;PMS_P2;Temp;Humidity;BMP_temperature;BMP_pressure;BME280_temperature;BME280_humidity;BME280_pressure;Samples;Min_cycle;Max_cycle;Signal;HPM_P1;HPM_P2
2022/05/22 00:00:30;;;;;;;2.03;1.83;;;;;;;7.69;100.00;93291.97;2107501;28;20098;-83
2022/05/22 00:01:31;;;;;;;2.08;1.80;;;;;;;7.78;100.00;93286.19;2107033;28;20032;-84
2022/05/22 00:02:32;;;;;;;2.25;1.83;;;;;;;7.83;100.00;93286.53;2098572;28;20362;-85
2022/05/22 00:03:33;;;;;;;2.13;1.63;;;;;;;7.65;100.00;93287.81;2090566;28;20036;-85
2022/05/22 00:04:34;;;;;;;2.90;1.60;;;;;;;7.68;100.00;93287.81;2107024;28;20112;-85
2022/05/22 00:05:36;;;;;;;2.80;1.80;;;;;;;7.67;100.00;93288.94;2098572;28;20123;-86
2022/05/22 00:06:37;;;;;;;4.30;1.83;;;;;;;7.78;100.00;93286.19;2090752;28;20029;-85
2022/05/22 00:07:38;;;;;;;1.48;1.30;;;;;;;7.95;100.00;93284.53;2098601;28;20028;-84
2022/05/22 00:08:39;;;;;;;2.45;1.70;;;;;;;7.92;100.00;93286.06;2090391;28;20051;-84
2022/05/22 00:09:41;;;;;;;3.17;1.55;;;;;;;7.86;100.00;93292.19;2107099;28;20089;-85
2022/05/22 00:10:42;;;;;;;4.38;1.77;;;;;;;7.55;100.00;93286.75;2098463;28;20029;-85
2022/05/22 00:11:43;;;;;;;2.42;1.80;;;;;;;7.38;100.00;93279.66;2090419;28;20083;-84
2022/05/22 00:12:45;;;;;;;3.03;1.75;;;;;;;7.51;100.00;93286.78;2097804;28;20469;-82
2022/05/22 00:13:47;;;;;;;3.13;1.60;;;;;;;7.40;100.00;93278.13;2106792;28;20051;-85
2022/05/22 00:14:48;;;;;;;2.83;1.90;;;;;;;7.51;100.00;93272.72;2106738;28;20580;-83
2022/05/22 00:17:10;;;;;;;4.13;1.95;;;;;;;7.44;100.00;93270.88;2103695;28;20059;-84
2022/05/22 00:18:12;;;;;;;1.80;1.63;;;;;;;7.60;100.00;93272.28;2098369;28;20550;-83
2022/05/22 00:19:19;;;;;;;3.50;1.60;;;;;;;7.49;100.00;93275.00;2090427;28;20029;-83
2022/05/22 00:20:20;;;;;;;2.83;1.60;;;;;;;7.58;100.00;93270.00;2100232;28;20028;-85
2022/05/22 00:21:21;;;;;;;2.13;1.50;;;;;;;7.62;100.00;93275.28;2098425;28;20520;-85
2022/05/22 00:22:22;;;;;;;2.05;1.70;;;;;;;7.61;100.00;93269.22;2090324;28;20513;-85
2022/05/22 00:23:24;;;;;;;3.55;1.60;;;;;;;7.51;100.00;93273.50;2098392;28;20025;-83
2022/05/22 00:24:29;;;;;;;4.15;1.52;;;;;;;7.42;100.00;93275.84;2098693;28;20028;-85
2022/05/22 00:25:30;;;;;;;4.40;1.63;;;;;;;7.38;100.00;93277.00;2107268;28;20107;-84
2022/05/22 00:26:35;;;;;;;2.55;1.55;;;;;;;7.43;100.00;93274.69;2106802;28;20027;-83
2022/05/22 00:27:38;;;;;;;3.58;1.52;;;;;;;7.43;100.00;93276.59;2090837;28;20025;-83
2022/05/22 00:28:39;;;;;;;1.98;1.80;;;;;;;7.33;100.00;93262.19;2098599;28;20473;-84
2022/05/22 00:29:40;;;;;;;2.03;1.67;;;;;;;7.47;100.00;93272.00;2106597;28;20030;-84
2022/05/22 00:30:41;;;;;;;5.80;1.90;;;;;;;7.41;100.00;93270.88;2106758;28;20512;-84
2022/05/22 00:31:42;;;;;;;2.60;1.58;;;;;;;7.22;100.00;93272.16;2098461;28;20636;-85
2022/05/22 00:32:43;;;;;;;3.80;2.10;;;;;;;7.35;100.00;93270.56;2098387;28;20025;-84
2022/05/22 00:33:44;;;;;;;2.30;1.80;;;;;;;7.36;100.00;93273.97;2089730;28;20025;-85
2022/05/22 00:34:45;;;;;;;3.47;1.80;;;;;;;7.23;100.00;93273.69;2091209;28;20047;-83
2022/05/22 00:35:46;;;;;;;4.95;1.67;;;;;;;7.34;100.00;93278.94;2098679;28;20025;-84
2022/05/22 00:36:48;;;;;;;3.30;1.70;;;;;;;7.46;100.00;93273.91;2098445;28;20039;-84
2022/05/22 00:37:49;;;;;;;3.15;1.60;;;;;;;7.37;100.00;93275.47;2098330;28;20048;-85
2022/05/22 00:38:50;;;;;;;2.03;1.60;;;;;;;7.29;100.00;93272.13;2100085;28;20040;-85
2022/05/22 00:39:51;;;;;;;3.58;1.67;;;;;;;7.44;100.00;93278.84;2098192;28;20101;-85
2022/05/22 00:40:53;;;;;;;3.60;1.67;;;;;;;7.38;100.00;93279.66;2090213;28;20051;-85
2022/05/22 00:41:56;;;;;;;2.53;1.95;;;;;;;7.36;100.00;93284.59;2098496;28;20054;-84
2022/05/22 00:42:57;;;;;;;2.30;1.60;;;;;;;7.34;100.00;93279.69;2101595;28;20081;-84
2022/05/22 00:44:00;;;;;;;2.33;1.80;;;;;;;7.20;100.00;93274.44;2098287;28;20058;-86
2022/05/22 00:45:03;;;;;;;2.40;1.70;;;;;;;7.38;100.00;93285.75;2099027;28;20020;-84
2022/05/22 00:46:06;;;;;;;2.30;1.55;;;;;;;7.44;100.00;93283.41;2098350;28;20081;-86
2022/05/22 00:47:17;;;;;;;2.90;1.80;;;;;;;7.18;100.00;93277.50;2098751;28;20489;-85
2022/05/22 00:48:18;;;;;;;2.17;1.45;;;;;;;7.02;100.00;93275.34;2114953;28;20027;-84
2022/05/22 00:49:27;;;;;;;1.50;1.40;;;;;;;7.16;100.00;93271.84;2114955;28;20553;-85
2022/05/22 00:50:28;;;;;;;3.58;1.80;;;;;;;7.18;100.00;93272.19;2115092;28;20487;-84
2022/05/22 00:52:03;;;;;;;2.28;1.65;;;;;;;7.29;100.00;93274.78;2098501;28;20031;-85
2022/05/22 00:53:07;;;;;;;2.75;1.52;;;;;;;7.19;100.00;93275.59;2090735;28;20035;-83
2022/05/22 00:54:18;;;;;;;2.38;1.40;;;;;;;7.37;100.00;93273.56;2090471;28;20065;-85
2022/05/22 00:55:30;;;;;;;2.17;1.70;;;;;;;7.25;100.00;93277.47;2092948;28;20434;-84
2022/05/22 00:56:49;;;;;;;1.67;1.40;;;;;;;7.18;100.00;93271.44;2101438;28;20024;-83
2022/05/22 00:58:04;;;;;;;3.72;1.73;;;;;;;7.14;100.00;93270.69;2098292;28;20033;-84
2022/05/22 00:59:10;;;;;;;2.03;1.45;;;;;;;7.02;100.00;93271.91;2108188;28;20051;-83
2022/05/22 01:00:15;;;;;;;5.80;1.55;;;;;;;7.07;100.00;93272.25;2098621;28;20386;-83
2022/05/22 01:01:17;;;;;;;4.75;1.50;;;;;;;7.03;100.00;93266.22;2099542;28;20539;-82
2022/05/22 01:02:18;;;;;;;2.65;1.75;;;;;;;7.31;100.00;93267.16;2098154;28;20048;-84
2022/05/22 01:03:28;;;;;;;2.42;1.55;;;;;;;7.07;100.00;93264.28;2106609;28;20020;-84
2022/05/22 01:04:31;;;;;;;;;;;;;;;6.97;100.00;93272.31;2108397;28;20062;-84
2022/05/22 01:05:34;;;;;;;2.00;1.50;;;;;;;6.93;100.00;93269.66;2098516;28;19908;-82
2022/05/22 01:06:36;;;;;;;2.70;1.30;;;;;;;6.86;100.00;93263.66;2106883;28;20028;-83
2022/05/22 01:07:45;;;;;;;1.80;1.33;;;;;;;7.04;100.00;93261.66;2106323;28;20020;-84
2022/05/22 01:08:49;;;;;;;6.03;1.80;;;;;;;7.08;100.00;93259.72;2092111;28;20501;-84
2022/05/22 01:09:53;;;;;;;1.92;1.50;;;;;;;7.07;100.00;93260.88;2083228;28;20471;-82
2022/05/22 01:11:08;;;;;;;4.05;1.40;;;;;;;7.01;100.00;93252.53;2082224;28;20410;-86
2022/05/22 01:12:23;;;;;;;3.35;1.90;;;;;;;7.01;100.00;93247.22;2085799;28;20029;-84
2022/05/22 01:13:31;;;;;;;4.75;1.80;;;;;;;7.13;100.00;93253.25;2091618;28;20052;-82
2022/05/22 01:14:34;;;;;;;2.72;1.40;;;;;;;7.00;100.00;93245.72;2091583;28;20028;-83
2022/05/22 01:15:35;;;;;;;3.03;1.70;;;;;;;6.94;100.00;93249.19;2098415;28;20051;-85
2022/05/22 01:16:36;;;;;;;3.85;1.50;;;;;;;6.96;100.00;93244.97;2089884;28;20111;-83
2022/05/22 01:17:43;;;;;;;4.85;1.77;;;;;;;7.04;100.00;93240.38;2089982;28;20025;-83
2022/05/22 01:18:50;;;;;;;2.55;1.55;;;;;;;6.98;100.00;93237.41;2091558;28;20025;-83
2022/05/22 01:20:00;;;;;;;3.13;2.00;;;;;;;7.01;100.00;93244.56;2099694;28;20025;-83
2022/05/22 01:21:02;;;;;;;3.45;1.35;;;;;;;7.03;100.00;93242.28;2099288;28;20021;-83
2022/05/22 01:22:07;;;;;;;5.03;1.63;;;;;;;7.01;100.00;93249.13;2098297;28;20035;-84
2022/05/22 01:23:09;;;;;;;3.72;1.38;;;;;;;6.94;100.00;93246.53;2098659;28;20024;-84
2022/05/22 01:24:10;;;;;;;2.15;1.83;;;;;;;6.96;100.00;93244.22;2094381;28;20020;-85
2022/05/22 01:25:12;;;;;;;3.10;1.70;;;;;;;7.04;100.00;93243.03;2098074;28;20065;-83
2022/05/22 01:26:14;;;;;;;2.35;1.60;;;;;;;6.80;100.00;93244.69;2098018;28;20024;-83
2022/05/22 01:27:17;;;;;;;2.53;1.70;;;;;;;6.74;100.00;93243.59;2098176;28;20028;-85
2022/05/22 01:28:19;;;;;;;4.65;1.75;;;;;;;6.91;100.00;93242.75;2112484;28;20019;-85
2022/05/22 01:29:21;;;;;;;2.30;1.67;;;;;;;6.94;100.00;93241.97;2106193;28;20107;-84
2022/05/22 01:30:25;;;;;;;3.13;1.80;;;;;;;7.02;100.00;93243.44;2096030;28;20044;-84
2022/05/22 01:31:26;;;;;;;3.20;1.60;;;;;;;6.91;100.00;93234.78;2098941;28;20024;-84
2022/05/22 01:32:28;;;;;;;3.63;2.22;;;;;;;6.94;100.00;93236.66;2106475;28;20055;-82
2022/05/22 01:33:29;;;;;;;1.50;1.40;;;;;;;6.88;100.00;93242.75;2097952;28;20024;-84
2022/05/22 01:34:30;;;;;;;2.47;1.60;;;;;;;6.91;100.00;93242.75;2089787;28;20028;-85
2022/05/22 01:35:35;;;;;;;2.78;1.58;;;;;;;6.86;100.00;93239.75;2089696;28;20025;-86
2022/05/22 01:36:37;;;;;;;4.85;1.77;;;;;;;6.84;100.00;93237.47;2098438;28;20024;-83
2022/05/22 01:37:38;;;;;;;3.38;1.80;;;;;;;6.75;100.00;93237.13;2097969;28;20503;-86
2022/05/22 01:38:39;;;;;;;2.50;1.70;;;;;;;6.78;100.00;93236.38;2098007;28;20467;-84
2022/05/22 01:39:41;;;;;;;3.17;1.60;;;;;;;6.72;100.00;93236.03;2095143;28;20020;-85
2022/05/22 01:40:42;;;;;;;2.03;1.55;;;;;;;6.65;100.00;93237.94;2089745;28;20074;-84
2022/05/22 01:41:43;;;;;;;4.00;1.30;;;;;;;6.65;100.00;93237.94;2106465;28;20024;-83
2022/05/22 01:42:44;;;;;;;2.92;1.85;;;;;;;6.52;100.00;93238.38;2097879;28;20024;-84
2022/05/22 01:43:46;;;;;;;2.30;1.50;;;;;;;6.52;100.00;93242.94;2098240;28;20035;-84
2022/05/22 01:44:48;;;;;;;4.32;1.65;;;;;;;6.62;100.00;93233.41;2106471;28;20416;-84
2022/05/22 01:45:49;;;;;;;1.60;1.50;;;;;;;6.68;100.00;93239.84;2097799;28;20428;-86
2022/05/22 01:46:50;;;;;;;2.35;1.50;;;;;;;6.74;100.00;93238.28;2106403;28;20496;-84
2022/05/22 01:47:52;;;;;;;3.67;1.70;;;;;;;6.76;100.00;93239.41;2106126;28;20123;-83
2022/05/22 01:48:56;;;;;;;2.72;1.92;;;;;;;6.79;100.00;93238.63;2090005;28;20025;-83
2022/05/22 01:49:58;;;;;;;2.85;1.77;;;;;;;6.79;100.00;93243.19;2092488;28;20043;-85
2022/05/22 01:51:00;;;;;;;2.15;1.50;;;;;;;6.80;100.00;93234.06;2089933;28;20021;-84
2022/05/22 01:52:03;;;;;;;3.38;1.40;;;;;;;6.71;100.00;93234.50;2090095;28;20028;-85
2022/05/22 01:53:06;;;;;;;3.42;1.58;;;;;;;6.72;100.00;93233.38;2089946;28;20025;-83
2022/05/22 01:54:08;;;;;;;2.53;1.77;;;;;;;6.70;100.00;93232.22;2098353;28;20108;-85
2022/05/22 01:55:11;;;;;;;2.90;1.63;;;;;;;6.67;100.00;93235.66;2106348;28;20024;-84
2022/05/22 01:56:13;;;;;;;2.22;1.50;;;;;;;6.73;100.00;93242.84;2098143;28;20020;-85
2022/05/22 01:57:15;;;;;;;2.58;1.42;;;;;;;6.78;100.00;93233.72;2089694;28;20466;-85
2022/05/22 01:58:16;;;;;;;1.73;1.50;;;;;;;6.69;100.00;93228.81;2089556;28;20108;-84
2022/05/22 01:59:17;;;;;;;1.83;1.40;;;;;;;6.49;100.00;93231.19;2097997;28;20031;-85
2022/05/22 02:00:20;;;;;;;5.38;1.42;;;;;;;6.57;100.00;93232.66;2114537;28;20020;-85
2022/05/22 02:01:21;;;;;;;2.05;1.27;;;;;;;6.67;100.00;93233.78;2114631;28;20019;-86
2022/05/22 02:02:22;;;;;;;2.67;1.60;;;;;;;6.63;100.00;93238.34;2106138;28;20419;-85
2022/05/22 02:03:24;;;;;;;4.53;2.20;;;;;;;6.56;100.00;93243.69;2097763;28;20465;-85
2022/05/22 02:04:26;;;;;;;3.17;1.50;;;;;;;6.56;100.00;93233.81;2089466;28;20083;-84
2022/05/22 02:05:27;;;;;;;2.38;1.70;;;;;;;6.69;100.00;93234.13;2097862;28;20052;-84
2022/05/22 02:06:29;;;;;;;2.35;1.50;;;;;;;6.72;100.00;93224.66;2113453;28;20077;-85
2022/05/22 02:08:49;;;;;;;3.40;1.60;;;;;;;6.54;100.00;93225.50;2102854;28;20074;-85
2022/05/22 02:09:50;;;;;;;2.13;1.35;;;;;;;6.66;100.00;93220.88;2096684;28;20032;-83
2022/05/22 02:10:57;;;;;;;2.47;1.58;;;;;;;6.71;100.00;93221.22;2099706;28;20102;-85
2022/05/22 02:13:22;;;;;;;;;;;;;;;6.57;100.00;93222.03;2148841;27;20164;-84
2022/05/22 02:14:24;;;;;;;1.70;1.38;;;;;;;6.57;100.00;93219.38;2123600;27;19949;-86
2022/05/22 02:15:25;;;;;;;2.92;1.38;;;;;;;6.62;100.00;93225.44;2113726;27;20027;-84
2022/05/22 02:16:26;;;;;;;2.00;1.40;;;;;;;6.73;100.00;93218.19;2120338;27;20015;-85
2022/05/22 02:17:28;;;;;;;1.52;1.42;;;;;;;6.85;100.00;93214.31;2114681;28;20483;-83
2022/05/22 02:18:29;;;;;;;3.22;1.42;;;;;;;6.73;100.00;93204.91;2136968;27;20452;-86
2022/05/22 02:19:30;;;;;;;2.47;1.33;;;;;;;6.71;100.00;93201.88;2122600;27;20034;-83
2022/05/22 02:20:31;;;;;;;1.42;1.33;;;;;;;6.50;100.00;93202.75;2112761;28;20042;-84
2022/05/22 02:21:32;;;;;;;2.65;1.83;;;;;;;6.54;100.00;93196.28;2121819;27;20455;-85
2022/05/22 02:22:46;;;;;;;2.83;1.48;;;;;;;6.71;100.00;93197.31;2139038;27;20094;-85
2022/05/22 02:23:48;;;;;;;1.85;1.58;;;;;;;6.77;100.00;93200.31;2130257;27;20018;-86
2022/05/22 02:24:50;;;;;;;2.35;1.70;;;;;;;6.80;100.00;93199.53;2111740;28;20091;-83
2022/05/22 02:25:54;;;;;;;1.98;1.50;;;;;;;6.73;100.00;93196.94;2115785;27;20024;-84
2022/05/22 02:26:55;;;;;;;3.92;1.65;;;;;;;6.77;100.00;93201.06;2119662;28;20058;-83
2022/05/22 02:27:57;;;;;;;2.75;1.58;;;;;;;6.80;100.00;93195.00;2113361;28;20022;-85
2022/05/22 02:28:57;;;;;;;2.10;1.27;;;;;;;6.71;100.00;93196.56;2116455;27;20020;-84
2022/05/22 02:30:28;;;;;;;3.92;1.15;;;;;;;6.72;100.00;93198.84;2113293;28;20115;-86
2022/05/22 02:31:31;;;;;;;3.50;1.58;;;;;;;6.74;100.00;93190.47;2121635;27;20114;-83
2022/05/22 02:32:32;;;;;;;2.28;1.50;;;;;;;6.66;100.00;93195.06;2114051;28;20028;-86
2022/05/22 02:33:35;;;;;;;7.55;1.70;;;;;;;6.53;100.00;93192.09;2121186;27;20022;-84
2022/05/22 02:34:36;;;;;;;1.45;1.13;;;;;;;6.60;100.00;93183.34;2130502;27;20019;-85
2022/05/22 02:35:40;;;;;;;3.05;1.42;;;;;;;6.62;100.00;93180.28;2121844;27;20030;-85
2022/05/22 02:36:41;;;;;;;4.60;1.52;;;;;;;6.54;100.00;93176.91;2121004;28;20550;-84
2022/05/22 02:37:45;;;;;;;1.98;1.52;;;;;;;6.62;100.00;93180.28;2106659;27;20054;-85
2022/05/22 02:38:46;;;;;;;1.70;1.13;;;;;;;6.57;100.00;93179.56;2113829;27;20027;-86
2022/05/22 02:39:48;;;;;;;5.50;1.45;;;;;;;6.73;100.00;93176.44;2105751;28;20032;-83
2022/05/22 02:40:49;;;;;;;2.33;1.52;;;;;;;6.65;100.00;93187.50;2113294;28;20024;-84
2022/05/22 02:41:50;;;;;;;3.38;1.50;;;;;;;6.65;100.00;93182.19;2113387;28;20028;-85
2022/05/22 02:42:52;;;;;;;3.35;1.40;;;;;;;6.62;100.00;93175.72;2113350;28;20094;-83
2022/05/22 02:43:54;;;;;;;1.13;1.02;;;;;;;6.56;100.00;93188.66;2104917;28;20073;-83
2022/05/22 02:44:55;;;;;;;1.85;1.30;;;;;;;6.51;100.00;93180.38;2110143;27;20032;-85
2022/05/22 02:45:59;;;;;;;2.38;1.60;;;;;;;6.49;100.00;93174.66;2121570;27;20985;-84
2022/05/22 02:47:00;;;;;;;5.28;1.63;;;;;;;6.37;100.00;93178.53;2110759;28;20012;-86
2022/05/22 02:48:03;;;;;;;3.97;1.33;;;;;;;6.34;100.00;93183.88;2113621;27;20581;-83
2022/05/22 02:49:04;;;;;;;3.22;1.40;;;;;;;6.48;100.00;93178.47;2117367;27;20069;-82
2022/05/22 02:50:07;;;;;;;3.65;1.27;;;;;;;6.52;100.00;93171.25;2126011;27;20062;-85
2022/05/22 02:51:14;;;;;;;2.50;1.40;;;;;;;6.42;100.00;93180.03;2130013;27;20030;-83
2022/05/22 02:52:15;;;;;;;2.15;1.10;;;;;;;6.45;100.00;93176.59;2127824;27;20356;-85
2022/05/22 02:53:17;;;;;;;2.17;1.40;;;;;;;6.41;100.00;93181.16;2116076;28;20023;-84
2022/05/22 02:54:21;;;;;;;3.45;1.63;;;;;;;6.44;100.00;93173.19;2105074;28;20059;-85
2022/05/22 02:55:23;;;;;;;2.33;1.67;;;;;;;6.52;100.00;93179.22;2114075;27;20065;-85
2022/05/22 02:56:25;;;;;;;2.65;1.27;;;;;;;6.52;100.00;93174.66;2121832;27;20043;-85
2022/05/22 02:57:27;;;;;;;5.95;1.35;;;;;;;6.59;100.00;93184.50;2128711;27;20061;-85
2022/05/22 02:58:28;;;;;;;1.77;1.67;;;;;;;6.63;100.00;93179.91;2114314;28;20044;-85
2022/05/22 02:59:33;;;;;;;2.28;1.40;;;;;;;6.48;100.00;93179.22;2112904;28;20056;-86
2022/05/22 03:00:34;;;;;;;2.42;1.40;;;;;;;6.47;100.00;93177.72;2113612;28;20085;-85
2022/05/22 03:01:35;;;;;;;1.70;1.48;;;;;;;6.48;100.00;93184.53;2112896;28;20020;-86
2022/05/22 03:02:36;;;;;;;6.13;1.50;;;;;;;6.41;100.00;93186.47;2104738;28;20032;-84
2022/05/22 03:03:37;;;;;;;1.58;1.20;;;;;;;6.46;100.00;93181.53;2096433;28;20029;-86
2022/05/22 03:04:38;;;;;;;2.78;1.70;;;;;;;6.42;100.00;93182.69;2104718;28;20025;-85
2022/05/22 03:07:01;;;;;;;3.90;1.23;;;;;;;6.44;100.00;93197.06;2143081;27;20026;-83
2022/05/22 03:08:03;;;;;;;3.55;1.30;;;;;;;6.38;100.00;93195.97;2121449;28;20047;-85
2022/05/22 03:09:06;;;;;;;1.60;1.50;;;;;;;6.33;100.00;93196.38;2116692;28;20081;-84
2022/05/22 03:10:11;;;;;;;2.00;1.50;;;;;;;6.38;100.00;93198.63;2113010;28;20416;-82
2022/05/22 03:11:12;;;;;;;1.83;1.30;;;;;;;6.39;100.00;93194.81;2115228;27;20047;-86
2022/05/22 03:12:20;;;;;;;5.03;1.60;;;;;;;6.33;100.00;93187.66;2121554;27;20523;-84
2022/05/22 03:13:21;;;;;;;4.20;1.50;;;;;;;6.23;100.00;93189.97;2113910;28;20051;-85
2022/05/22 03:14:24;;;;;;;2.47;1.15;;;;;;;6.23;100.00;93184.66;2104658;28;20094;-85
2022/05/22 03:15:26;;;;;;;3.63;1.40;;;;;;;6.15;100.00;93188.50;2105300;28;20414;-83
2022/05/22 03:16:27;;;;;;;3.05;1.88;;;;;;;6.17;100.00;93185.44;2104717;28;20020;-83
2022/05/22 03:17:28;;;;;;;2.35;1.15;;;;;;;6.20;100.00;93179.38;2104440;28;20051;-85
2022/05/22 03:18:29;;;;;;;2.05;1.50;;;;;;;6.13;100.00;93184.69;2097336;28;20032;-82
2022/05/22 03:19:30;;;;;;;3.58;1.58;;;;;;;6.26;100.00;93186.53;2104432;28;20124;-85
2022/05/22 03:20:31;;;;;;;2.47;1.20;;;;;;;6.22;100.00;93185.03;2096395;28;20017;-84
2022/05/22 03:21:32;;;;;;;2.38;1.40;;;;;;;6.19;100.00;93183.94;2095887;28;20028;-85
2022/05/22 03:22:33;;;;;;;2.03;1.42;;;;;;;6.19;100.00;93185.81;2104456;28;20028;-85
2022/05/22 03:23:35;;;;;;;1.42;1.30;;;;;;;6.16;100.00;93184.69;2104623;28;20123;-83
2022/05/22 03:24:36;;;;;;;2.17;1.50;;;;;;;6.21;100.00;93184.28;2099700;28;20024;-83
2022/05/22 03:25:39;;;;;;;3.72;1.52;;;;;;;6.16;100.00;93192.66;2107634;28;20024;-85
2022/05/22 03:26:40;;;;;;;2.10;1.33;;;;;;;6.09;100.00;93170.69;2098851;28;20039;-83
2022/05/22 03:27:41;;;;;;;1.65;1.20;;;;;;;6.07;100.00;93183.59;2083746;28;20471;-84
2022/05/22 03:28:42;;;;;;;3.50;1.90;;;;;;;6.16;100.00;93184.69;2098208;28;20032;-84
2022/05/22 03:29:44;;;;;;;2.08;1.40;;;;;;;6.13;100.00;93187.34;2099182;28;20024;-86
2022/05/22 03:30:45;;;;;;;2.22;1.15;;;;;;;6.16;100.00;93181.28;2107273;28;20024;-83
2022/05/22 03:31:48;;;;;;;2.17;1.17;;;;;;;6.16;100.00;93189.25;2100094;28;20461;-86
2022/05/22 03:32:49;;;;;;;1.52;1.42;;;;;;;6.08;100.00;93187.75;2105748;28;20103;-84
2022/05/22 03:33:50;;;;;;;1.50;1.40;;;;;;;5.98;100.00;93184.75;2094292;28;20032;-85
2022/05/22 03:34:52;;;;;;;1.23;1.13;;;;;;;6.02;100.00;93184.75;2105080;28;20027;-84
2022/05/22 03:35:53;;;;;;;3.05;1.23;;;;;;;6.00;100.00;93182.47;2101313;28;20024;-86
2022/05/22 03:36:54;;;;;;;1.73;1.10;;;;;;;6.19;100.00;93180.50;2104796;28;20051;-85
2022/05/22 03:37:55;;;;;;;2.63;1.30;;;;;;;6.20;100.00;93187.34;2099036;28;20021;-84
2022/05/22 03:38:56;;;;;;;2.22;1.35;;;;;;;6.18;100.00;93184.28;2092683;28;20067;-83
2022/05/22 03:39:58;;;;;;;2.08;1.77;;;;;;;6.09;100.00;93183.97;2090525;28;20071;-83
2022/05/22 03:40:59;;;;;;;2.58;1.30;;;;;;;6.03;100.00;93188.91;2098877;28;20025;-83
2022/05/22 03:42:01;;;;;;;3.08;1.98;;;;;;;6.08;100.00;93193.06;2098824;28;20538;-82
2022/05/22 03:43:04;;;;;;;0.98;0.95;;;;;;;6.11;100.00;93187.75;2098059;28;20057;-85
2022/05/22 03:44:08;;;;;;;2.10;1.48;;;;;;;5.94;100.00;93184.00;2095573;28;20752;-84
2022/05/22 03:45:11;;;;;;;1.73;1.13;;;;;;;6.02;100.00;93184.75;2103729;28;20035;-83
2022/05/22 03:46:13;;;;;;;1.73;1.50;;;;;;;6.10;100.00;93172.94;2107434;28;20032;-84
2022/05/22 03:47:14;;;;;;;2.05;1.30;;;;;;;6.13;100.00;93174.09;2093593;28;20017;-83
2022/05/22 03:48:15;;;;;;;1.60;1.35;;;;;;;6.04;100.00;93174.50;2104161;28;20020;-86
2022/05/22 03:49:16;;;;;;;2.25;1.30;;;;;;;6.07;100.00;93165.78;2107171;28;20032;-84
2022/05/22 03:50:18;;;;;;;1.73;1.30;;;;;;;6.03;100.00;93175.66;2101425;28;20033;-86
2022/05/22 03:51:19;;;;;;;2.97;1.40;;;;;;;6.03;100.00;93173.00;2096401;28;20110;-85
2022/05/22 03:52:43;;;;;;;1.88;1.33;;;;;;;6.07;100.00;93170.34;2107199;28;20138;-85
2022/05/22 03:53:44;;;;;;;3.95;1.60;;;;;;;6.08;100.00;93167.28;2118747;27;20108;-83
2022/05/22 03:54:45;;;;;;;2.63;1.38;;;;;;;6.11;100.00;93173.72;2114131;28;20030;-84
2022/05/22 03:55:47;;;;;;;2.10;1.63;;;;;;;5.90;100.00;93172.63;2107012;28;20047;-85
2022/05/22 03:56:48;;;;;;;2.85;1.40;;;;;;;6.05;100.00;93160.84;2099122;28;20027;-84
2022/05/22 03:57:49;;;;;;;2.13;1.15;;;;;;;6.07;100.00;93165.03;2100388;28;20024;-86
2022/05/22 03:58:50;;;;;;;1.60;1.20;;;;;;;6.05;100.00;93158.19;2098751;28;20028;-84
2022/05/22 03:59:51;;;;;;;2.58;1.75;;;;;;;6.10;100.00;93158.94;2115538;27;20027;-85
2022/05/22 04:00:52;;;;;;;1.40;1.20;;;;;;;6.12;100.00;93157.41;2115410;28;20023;-85
2022/05/22 04:01:56;;;;;;;4.28;1.63;;;;;;;6.23;100.00;93160.00;2107049;28;20042;-86
2022/05/22 04:02:57;;;;;;;4.93;1.40;;;;;;;6.23;100.00;93157.34;2103945;28;20051;-83
2022/05/22 04:03:59;;;;;;;2.03;1.35;;;;;;;6.15;100.00;93156.66;2096148;28;20453;-86
2022/05/22 04:05:01;;;;;;;1.48;1.30;;;;;;;6.10;100.00;93157.03;2106995;28;20458;-84
2022/05/22 04:06:07;;;;;;;2.85;1.45;;;;;;;6.01;100.00;93156.69;2116147;27;20073;-83
2022/05/22 04:07:09;;;;;;;3.03;1.52;;;;;;;5.95;100.00;93164.28;2110936;28;20027;-85
2022/05/22 04:08:11;;;;;;;2.13;1.20;;;;;;;5.98;100.00;93162.78;2095119;28;20491;-83
2022/05/22 04:09:13;;;;;;;1.40;1.30;;;;;;;6.15;100.00;93158.56;2099671;28;20034;-84
2022/05/22 04:10:16;;;;;;;3.25;1.55;;;;;;;6.14;100.00;93154.38;2090611;28;20519;-84
2022/05/22 04:11:19;;;;;;;1.75;1.30;;;;;;;6.21;100.00;93164.97;2090983;28;20020;-82
2022/05/22 04:12:20;;;;;;;2.58;1.30;;;;;;;6.26;100.00;93164.56;2102519;28;20058;-82
2022/05/22 04:13:23;;;;;;;2.35;1.55;;;;;;;6.18;100.00;93155.84;2100463;28;20032;-84
2022/05/22 04:14:25;;;;;;;2.63;1.52;;;;;;;6.07;100.00;93149.84;2105255;28;20104;-84
2022/05/22 04:15:26;;;;;;;1.85;1.40;;;;;;;6.18;100.00;93155.09;2107223;28;20053;-86
2022/05/22 04:16:27;;;;;;;2.83;1.40;;;;;;;6.16;100.00;93146.78;2099974;28;20027;-84
2022/05/22 04:17:29;;;;;;;1.50;1.40;;;;;;;6.25;100.00;93150.53;2105945;28;20024;-85
2022/05/22 04:18:31;;;;;;;1.75;1.50;;;;;;;6.19;100.00;93146.78;2099507;28;20052;-83
2022/05/22 04:19:33;;;;;;;1.50;1.40;;;;;;;6.29;100.00;93139.91;2099220;28;20485;-85
2022/05/22 04:20:34;;;;;;;1.38;1.27;;;;;;;6.28;100.00;93147.09;2107110;28;20024;-83
2022/05/22 04:21:35;;;;;;;1.85;1.30;;;;;;;6.33;100.00;93140.63;2106842;28;20107;-83
2022/05/22 04:25:11;;;;;;;1.52;1.25;;;;;;;6.31;100.00;93143.66;2098435;28;20020;-86
2022/05/22 04:25:21;;;;;;;5.40;1.35;;;;;;;6.33;100.00;93137.22;2115329;27;20027;-82
2022/05/22 04:26:29;;;;;;;4.30;1.30;;;;;;;6.40;100.00;93135.28;2104720;28;20118;-84
2022/05/22 04:27:30;;;;;;;2.08;1.23;;;;;;;6.41;100.00;93131.50;2099311;28;20016;-87
2022/05/22 04:28:31;;;;;;;1.35;1.25;;;;;;;6.49;100.00;93132.94;2115242;28;20046;-86
2022/05/22 04:29:34;;;;;;;1.48;1.20;;;;;;;6.57;100.00;93123.03;2107415;28;20031;-85
2022/05/22 04:30:35;;;;;;;2.72;1.60;;;;;;;6.59;100.00;93128.72;2098815;28;20107;-84
2022/05/22 04:31:36;;;;;;;2.45;1.42;;;;;;;6.66;100.00;93130.56;2098589;28;20111;-82
2022/05/22 04:32:38;;;;;;;2.05;1.55;;;;;;;6.66;100.00;93128.66;2116051;28;20035;-83
2022/05/22 04:33:39;;;;;;;4.78;1.50;;;;;;;6.63;100.00;93124.16;2108173;28;20511;-85
2022/05/22 04:34:41;;;;;;;1.48;1.38;;;;;;;6.65;100.00;93129.06;2108211;28;20024;-83
2022/05/22 04:35:43;;;;;;;1.83;1.55;;;;;;;6.73;100.00;93122.56;2099889;28;20350;-84
2022/05/22 04:36:44;;;;;;;4.63;1.58;;;;;;;6.77;100.00;93125.94;2099358;28;20542;-84
2022/05/22 04:37:46;;;;;;;6.43;1.70;;;;;;;6.82;100.00;93128.94;2100949;28;20493;-83
2022/05/22 04:38:46;;;;;;;2.05;1.42;;;;;;;6.90;100.00;93128.88;2103569;28;20035;-86
2022/05/22 04:39:48;;;;;;;2.22;1.60;;;;;;;7.03;100.00;93129.94;2104304;28;20032;-83
2022/05/22 04:40:58;;;;;;;2.00;1.50;;;;;;;7.04;100.00;93128.78;2100178;28;20464;-82
2022/05/22 04:42:00;;;;;;;3.20;1.48;;;;;;;7.04;100.00;93126.13;2109158;27;20036;-85
2022/05/22 04:43:03;;;;;;;2.83;1.73;;;;;;;7.01;100.00;93126.88;2110542;28;20098;-85
2022/05/22 04:44:05;;;;;;;2.08;1.50;;;;;;;6.97;100.00;93115.53;2119937;27;20488;-82
2022/05/22 04:45:09;;;;;;;4.80;1.60;;;;;;;7.04;100.00;93121.56;2110773;28;20490;-81
2022/05/22 04:46:10;;;;;;;2.97;1.65;;;;;;;7.09;100.00;93123.03;2107221;28;20107;-84
2022/05/22 04:47:12;;;;;;;1.90;1.38;;;;;;;7.05;100.00;93124.97;2098492;28;20119;-83
2022/05/22 04:48:13;;;;;;;4.05;1.60;;;;;;;7.02;100.00;93123.84;2114899;28;20050;-84
2022/05/22 04:49:14;;;;;;;2.92;1.40;;;;;;;7.15;100.00;93123.34;2098124;28;20028;-83
2022/05/22 04:50:16;;;;;;;3.75;1.70;;;;;;;7.09;100.00;93130.25;2098456;28;20497;-82
2022/05/22 04:51:17;;;;;;;2.50;1.58;;;;;;;7.14;100.00;93121.84;2114970;27;20103;-85
2022/05/22 04:52:19;;;;;;;3.47;1.90;;;;;;;7.17;100.00;93121.06;2115256;28;20026;-82
2022/05/22 04:53:25;;;;;;;2.60;1.70;;;;;;;7.26;100.00;93121.38;2106567;28;20488;-84
2022/05/22 04:54:28;;;;;;;2.40;1.60;;;;;;;7.19;100.00;93116.09;2107347;28;20487;-83
2022/05/22 04:55:29;;;;;;;2.53;1.75;;;;;;;7.19;100.00;93108.13;2107178;27;20028;-84
2022/05/22 04:56:30;;;;;;;2.70;1.52;;;;;;;7.36;100.00;93117.09;2115014;27;20078;-83
2022/05/22 04:57:31;;;;;;;3.05;1.50;;;;;;;7.42;100.00;93110.97;2106516;28;20030;-84
2022/05/22 04:58:32;;;;;;;2.72;1.50;;;;;;;7.37;100.00;93115.94;2114917;28;20031;-86
2022/05/22 04:59:34;;;;;;;2.00;1.77;;;;;;;7.40;100.00;93118.56;2123367;27;20093;-84
2022/05/22 05:00:36;;;;;;;1.77;1.35;;;;;;;7.39;100.00;93111.75;2115117;27;20072;-84
2022/05/22 05:01:37;;;;;;;3.88;2.05;;;;;;;7.40;100.00;93112.50;2106604;28;20034;-83
2022/05/22 05:02:38;;;;;;;1.98;1.45;;;;;;;7.36;100.00;93111.78;2098273;28;20040;-84